createdAt,value
2018-11-04T00:00:32.986Z,57.30
2018-11-04T00:01:33.001Z,57.90
2018-11-04T00:02:33.003Z,68.30
2018-11-04T00:03:32.967Z,62.60
2018-11-04T00:04:32.967Z,58.10
2018-11-04T00:05:32.968Z,63.00
2018-11-04T00:06:32.954Z,61.70
2018-11-04T00:07:32.992Z,63.90
2018-11-04T00:08:32.955Z,61.50
2018-11-04T00:09:32.952Z,58.00
2018-11-04T00:10:32.951Z,65.30
2018-11-04T00:11:32.943Z,57.30
2018-11-04T00:12:32.968Z,61.60
2018-11-04T00:13:32.931Z,64.90
2018-11-04T00:14:32.935Z,63.30
2018-11-04T00:15:32.927Z,63.40
2018-11-04T00:16:32.927Z,59.70
2018-11-04T00:17:32.958Z,63.40
2018-11-04T00:18:32.911Z,67.40
2018-11-04T00:19:32.913Z,65.30
2018-11-04T00:20:32.911Z,64.10
2018-11-04T00:21:32.904Z,67.00
2018-11-04T00:22:32.933Z,69.60
2018-11-04T00:23:32.927Z,70.40
2018-11-04T00:24:32.896Z,66.50
2018-11-04T00:25:32.893Z,64.50
2018-11-04T00:26:32.883Z,67.60
2018-11-04T00:27:32.883Z,66.70
2018-11-04T00:28:32.907Z,74.10
2018-11-04T00:29:32.928Z,74.60
2018-11-04T00:30:32.862Z,67.50
2018-11-04T00:31:32.868Z,70.90
2018-11-04T00:32:32.870Z,74.30
2018-11-04T00:33:32.900Z,72.10
2018-11-04T00:34:32.904Z,74.20
2018-11-04T00:35:32.855Z,75.70
2018-11-04T00:36:32.848Z,70.40
2018-11-04T00:37:32.850Z,75.10
2018-11-04T00:38:32.871Z,71.10
2018-11-04T00:39:32.840Z,79.70
2018-11-04T00:40:32.842Z,79.20
2018-11-04T00:41:32.836Z,72.70
2018-11-04T00:42:32.832Z,70.50
2018-11-04T00:43:32.856Z,82.20
2018-11-04T00:44:32.824Z,72.80
2018-11-04T00:45:32.862Z,75.10
2018-11-04T00:46:32.815Z,76.80
2018-11-04T00:47:32.839Z,71.50
2018-11-04T00:48:32.845Z,70.20
2018-11-04T00:49:32.809Z,70.50
2018-11-04T00:50:32.802Z,83.90
2018-11-04T00:51:32.799Z,79.50
2018-11-04T00:52:32.824Z,71.60
2018-11-04T00:53:32.794Z,72.90
2018-11-04T00:54:32.784Z,81.80
2018-11-04T00:55:32.813Z,82.30
2018-11-04T00:56:32.779Z,75.60
2018-11-04T00:57:32.776Z,74.90
2018-11-04T00:58:32.809Z,73.90
2018-11-04T00:59:32.768Z,78.30
2018-11-04T01:00:32.765Z,70.60
2018-11-04T01:01:32.787Z,76.10
2018-11-04T01:02:32.757Z,79.70
2018-11-04T01:03:32.788Z,79.50
2018-11-04T01:04:32.752Z,76.00
2018-11-04T01:05:32.749Z,73.90
2018-11-04T01:06:32.745Z,75.20
2018-11-04T01:07:32.765Z,76.90
2018-11-04T01:08:32.738Z,86.90
2018-11-04T01:09:32.732Z,79.90
2018-11-04T01:10:32.729Z,76.90
2018-11-04T01:11:32.724Z,82.60
2018-11-04T01:12:32.756Z,79.40
2018-11-04T01:13:32.717Z,85.60
2018-11-04T01:14:32.712Z,79.90
2018-11-04T01:15:32.712Z,81.40
2018-11-04T01:16:32.709Z,78.90
2018-11-04T01:17:32.732Z,84.80
2018-11-04T01:18:32.732Z,80.40
2018-11-04T01:19:32.701Z,80.80
2018-11-04T01:20:32.693Z,84.10
2018-11-04T01:21:32.689Z,81.50
2018-11-04T01:22:32.685Z,82.20
2018-11-04T01:23:32.710Z,88.40
2018-11-04T01:24:32.781Z,89.50
2018-11-04T01:25:32.677Z,82.70
2018-11-04T01:26:32.674Z,87.10
2018-11-04T01:27:32.669Z,87.20
2018-11-04T01:28:32.695Z,87.70
2018-11-04T01:29:32.662Z,81.90
2018-11-04T01:30:32.657Z,91.60
2018-11-04T01:31:32.655Z,82.20
2018-11-04T01:32:32.651Z,85.80
2018-11-04T01:33:32.673Z,89.60
2018-11-04T01:34:32.641Z,86.90
2018-11-04T01:35:32.638Z,86.70
2018-11-04T01:36:32.650Z,91.30
2018-11-04T01:37:32.634Z,90.60
2018-11-04T01:38:32.657Z,85.30
2018-11-04T01:39:32.625Z,89.40
2018-11-04T01:40:32.617Z,92.90
2018-11-04T01:41:32.617Z,90.50
2018-11-04T01:42:32.613Z,90.60
2018-11-04T01:43:32.642Z,90.90
2018-11-04T01:44:32.607Z,89.20
2018-11-04T01:45:32.602Z,96.80
2018-11-04T01:46:32.598Z,93.10
2018-11-04T01:47:32.598Z,92.20
2018-11-04T01:48:32.623Z,88.40
2018-11-04T01:49:32.590Z,92.40
2018-11-04T01:50:32.588Z,100.10
2018-11-04T01:51:32.583Z,100.20
2018-11-04T01:52:32.578Z,108.90
2018-11-04T01:53:32.607Z,103.30
2018-11-04T01:54:32.569Z,102.90
2018-11-04T01:55:32.565Z,102.00
2018-11-04T01:56:32.566Z,105.60
2018-11-04T01:57:32.558Z,109.10
2018-11-04T01:58:32.586Z,106.00
2018-11-04T01:59:32.550Z,99.30
2018-11-04T02:00:32.551Z,97.40
2018-11-04T02:01:32.546Z,102.50
2018-11-04T02:02:32.544Z,103.60
2018-11-04T02:03:32.733Z,106.30
2018-11-04T02:04:32.532Z,102.40
2018-11-04T02:05:32.523Z,97.70
2018-11-04T02:06:32.528Z,105.60
2018-11-04T02:07:32.522Z,100.60
2018-11-04T02:08:32.547Z,101.00
2018-11-04T02:09:32.516Z,110.00
2018-11-04T02:10:32.511Z,101.80
2018-11-04T02:11:32.509Z,107.60
2018-11-04T02:12:32.506Z,104.50
2018-11-04T02:13:32.531Z,107.00
2018-11-04T02:14:32.495Z,108.30
2018-11-04T02:15:32.495Z,101.50
2018-11-04T02:16:32.491Z,102.50
2018-11-04T02:17:32.488Z,103.40
2018-11-04T02:18:32.513Z,103.10
2018-11-04T02:19:32.478Z,101.60
2018-11-04T02:20:32.475Z,104.90
2018-11-04T02:21:32.473Z,101.40
2018-11-04T02:22:32.467Z,90.00
2018-11-04T02:23:32.492Z,94.40
2018-11-04T02:24:32.459Z,98.30
2018-11-04T02:25:32.456Z,93.90
2018-11-04T02:26:32.452Z,90.90
2018-11-04T02:27:32.454Z,98.50
2018-11-04T02:28:32.468Z,88.60
2018-11-04T02:29:32.446Z,94.10
2018-11-04T02:30:32.441Z,101.10
2018-11-04T02:31:32.436Z,97.70
2018-11-04T02:32:32.434Z,95.60
2018-11-04T02:33:32.456Z,98.10
2018-11-04T02:34:32.451Z,97.30
2018-11-04T02:35:32.423Z,101.30
2018-11-04T02:36:32.416Z,98.60
2018-11-04T02:37:32.410Z,100.20
2018-11-04T02:38:32.407Z,96.60
2018-11-04T02:39:32.434Z,99.90
2018-11-04T02:40:32.400Z,92.30
2018-11-04T02:41:32.400Z,86.00
2018-11-04T02:42:32.393Z,87.40
2018-11-04T02:43:32.392Z,98.10
2018-11-04T02:44:32.417Z,99.40
2018-11-04T02:45:32.383Z,91.10
2018-11-04T02:46:32.378Z,92.50
2018-11-04T02:47:32.377Z,87.90
2018-11-04T02:48:32.372Z,90.40
2018-11-04T02:49:32.397Z,81.90
2018-11-04T02:50:32.364Z,97.90
2018-11-04T02:51:32.365Z,90.80
2018-11-04T02:52:32.357Z,92.80
2018-11-04T02:53:32.361Z,92.30
2018-11-04T02:54:32.377Z,93.30
2018-11-04T02:55:32.346Z,83.70
2018-11-04T02:56:32.345Z,88.20
2018-11-04T02:57:32.347Z,89.40
2018-11-04T02:58:32.340Z,82.70
2018-11-04T02:59:32.361Z,89.10
2018-11-04T03:00:32.329Z,83.70
2018-11-04T03:01:32.322Z,91.00
2018-11-04T03:02:32.324Z,91.40
2018-11-04T03:03:32.317Z,90.10
2018-11-04T03:04:32.345Z,87.10
2018-11-04T03:05:32.309Z,91.10
2018-11-04T03:06:32.302Z,86.20
2018-11-04T03:07:32.300Z,91.10
2018-11-04T03:08:32.300Z,92.20
2018-11-04T03:09:32.327Z,87.70
2018-11-04T03:10:32.292Z,93.00
2018-11-04T03:11:32.289Z,89.40
2018-11-04T03:12:32.286Z,97.00
2018-11-04T03:13:32.313Z,89.20
2018-11-04T03:14:32.308Z,93.00
2018-11-04T03:15:32.274Z,87.20
2018-11-04T03:16:32.269Z,84.30
2018-11-04T03:17:32.269Z,85.60
2018-11-04T03:18:32.262Z,80.30
2018-11-04T03:19:32.288Z,82.90
2018-11-04T03:20:32.257Z,74.70
2018-11-04T03:21:32.254Z,78.90
2018-11-04T03:22:32.250Z,78.50
2018-11-04T03:23:32.244Z,81.50
2018-11-04T03:24:32.313Z,73.80
2018-11-04T03:25:32.239Z,78.40
2018-11-04T03:26:32.233Z,68.60
2018-11-04T03:27:32.231Z,74.80
2018-11-04T03:28:32.227Z,79.10
2018-11-04T03:29:32.251Z,72.30
2018-11-04T03:30:32.218Z,74.20
2018-11-04T03:31:32.219Z,74.40
2018-11-04T03:32:32.215Z,70.60
2018-11-04T03:33:32.212Z,71.70
2018-11-04T03:34:32.235Z,73.10
2018-11-04T03:35:32.205Z,72.30
2018-11-04T03:36:32.199Z,71.10
2018-11-04T03:37:32.194Z,70.50
2018-11-04T03:38:32.191Z,70.00
2018-11-04T03:39:32.215Z,74.40
2018-11-04T03:40:32.180Z,70.30
2018-11-04T03:41:32.183Z,73.80
2018-11-04T03:42:32.179Z,69.60
2018-11-04T03:43:32.175Z,73.80
2018-11-04T03:44:32.199Z,65.70
2018-11-04T03:45:32.166Z,68.30
2018-11-04T03:46:32.167Z,69.20
2018-11-04T03:47:32.159Z,66.90
2018-11-04T03:48:32.156Z,62.50
2018-11-04T03:49:32.215Z,63.50
2018-11-04T03:50:32.150Z,65.20
2018-11-04T03:51:32.149Z,66.20
2018-11-04T03:52:32.144Z,66.00
2018-11-04T03:53:32.140Z,68.50
2018-11-04T03:54:32.166Z,69.20
2018-11-04T03:55:32.132Z,65.00
2018-11-04T03:56:32.140Z,71.10
2018-11-04T03:57:32.123Z,72.80
2018-11-04T03:58:32.123Z,73.60
2018-11-04T03:59:32.147Z,72.00
2018-11-04T04:00:32.112Z,72.60
2018-11-04T04:01:32.112Z,67.70
2018-11-04T04:02:32.108Z,63.40
2018-11-04T04:03:32.130Z,69.50
2018-11-04T04:04:32.145Z,69.00
2018-11-04T04:05:32.129Z,71.20
2018-11-04T04:06:32.092Z,71.80
2018-11-04T04:07:32.089Z,72.00
2018-11-04T04:08:32.089Z,72.40
2018-11-04T04:09:32.111Z,71.20
2018-11-04T04:10:32.076Z,74.60
2018-11-04T04:11:32.077Z,72.50
2018-11-04T04:12:32.073Z,72.80
2018-11-04T04:13:32.067Z,74.00
2018-11-04T04:14:32.094Z,75.20
2018-11-04T04:15:32.056Z,73.60
2018-11-04T04:16:32.059Z,76.10
2018-11-04T04:17:32.056Z,82.10
2018-11-04T04:18:32.049Z,74.80
2018-11-04T04:19:32.078Z,78.40
2018-11-04T04:20:32.040Z,73.30
2018-11-04T04:21:32.040Z,77.00
2018-11-04T04:22:32.036Z,82.00
2018-11-04T04:23:32.034Z,71.10
2018-11-04T04:24:32.059Z,70.90
2018-11-04T04:25:32.020Z,69.40
2018-11-04T04:26:32.020Z,67.00
2018-11-04T04:27:32.016Z,69.70
2018-11-04T04:28:32.015Z,70.00
2018-11-04T04:29:32.040Z,70.30
2018-11-04T04:30:32.008Z,76.20
2018-11-04T04:31:31.995Z,71.90
2018-11-04T04:32:32.003Z,71.60
2018-11-04T04:33:31.997Z,81.00
2018-11-04T04:34:32.021Z,69.80
2018-11-04T04:35:31.989Z,72.20
2018-11-04T04:36:31.984Z,72.80
2018-11-04T04:37:31.980Z,70.40
2018-11-04T04:38:31.974Z,75.90
2018-11-04T04:39:32.006Z,72.50
2018-11-04T04:40:31.974Z,75.50
2018-11-04T04:41:31.964Z,72.00
2018-11-04T04:42:31.965Z,76.20
2018-11-04T04:43:31.964Z,79.00
2018-11-04T04:44:31.985Z,78.20
2018-11-04T04:45:31.954Z,77.70
2018-11-04T04:46:31.950Z,72.90
2018-11-04T04:47:31.945Z,77.00
2018-11-04T04:48:31.942Z,76.60
2018-11-04T04:49:31.967Z,84.00
2018-11-04T04:50:31.933Z,76.00
2018-11-04T04:51:31.928Z,87.00
2018-11-04T04:52:31.933Z,81.80
2018-11-04T04:53:31.925Z,81.90
2018-11-04T04:54:31.953Z,78.40
2018-11-04T04:55:31.917Z,77.90
2018-11-04T04:56:31.910Z,82.80
2018-11-04T04:57:31.919Z,81.60
2018-11-04T04:58:31.898Z,90.80
2018-11-04T04:59:31.935Z,89.90
2018-11-04T05:00:31.898Z,93.10
2018-11-04T05:01:31.897Z,81.70
2018-11-04T05:02:31.899Z,88.70
2018-11-04T05:03:31.886Z,85.40
2018-11-04T05:04:31.909Z,85.10
2018-11-04T05:05:31.882Z,88.80
2018-11-04T05:06:31.876Z,87.30
2018-11-04T05:07:31.875Z,83.00
2018-11-04T05:08:31.870Z,82.50
2018-11-04T05:09:31.891Z,90.50
2018-11-04T05:10:31.862Z,90.80
2018-11-04T05:11:31.858Z,88.00
2018-11-04T05:12:31.856Z,92.60
2018-11-04T05:13:31.851Z,78.90
2018-11-04T05:14:31.872Z,82.10
2018-11-04T05:15:31.842Z,90.40
2018-11-04T05:16:31.839Z,83.30
2018-11-04T05:17:31.838Z,77.50
2018-11-04T05:18:31.831Z,82.40
2018-11-04T05:19:31.855Z,87.20
2018-11-04T05:20:31.826Z,83.40
2018-11-04T05:21:31.818Z,80.60
2018-11-04T05:22:31.818Z,76.60
2018-11-04T05:23:31.812Z,75.10
2018-11-04T05:24:31.835Z,78.30
2018-11-04T05:25:31.808Z,72.90
2018-11-04T05:26:31.799Z,75.50
2018-11-04T05:27:31.799Z,79.00
2018-11-04T05:28:31.795Z,71.50
2018-11-04T05:29:31.820Z,74.00
2018-11-04T05:30:31.787Z,74.80
2018-11-04T05:31:31.783Z,73.60
2018-11-04T05:32:31.783Z,71.90
2018-11-04T05:33:31.779Z,70.90
2018-11-04T05:34:31.809Z,77.70
2018-11-04T05:35:31.774Z,72.80
2018-11-04T05:36:31.766Z,74.50
2018-11-04T05:37:31.763Z,66.70
2018-11-04T05:38:31.778Z,68.20
2018-11-04T05:39:31.784Z,71.60
2018-11-04T05:40:31.757Z,70.70
2018-11-04T05:41:31.752Z,67.00
2018-11-04T05:42:31.743Z,71.00
2018-11-04T05:43:31.749Z,67.90
2018-11-04T05:44:31.768Z,69.00
2018-11-04T05:45:31.735Z,70.10
2018-11-04T05:46:31.732Z,67.80
2018-11-04T05:47:31.727Z,69.50
2018-11-04T05:48:31.725Z,68.70
2018-11-04T05:49:31.747Z,66.40
2018-11-04T05:50:31.718Z,64.00
2018-11-04T05:51:31.711Z,71.40
2018-11-04T05:52:31.710Z,68.70
2018-11-04T05:53:31.711Z,69.30
2018-11-04T05:54:31.733Z,70.70
2018-11-04T05:55:31.701Z,66.00
2018-11-04T05:56:31.698Z,68.10
2018-11-04T05:57:31.692Z,72.00
2018-11-04T05:58:31.693Z,73.40
2018-11-04T05:59:31.713Z,68.00
2018-11-04T06:00:31.682Z,65.80
2018-11-04T06:01:31.688Z,67.00
2018-11-04T06:02:31.678Z,66.20
2018-11-04T06:03:31.676Z,63.90
2018-11-04T06:04:31.707Z,67.50
2018-11-04T06:05:31.665Z,65.90
2018-11-04T06:06:31.660Z,63.50
2018-11-04T06:07:31.652Z,67.70
2018-11-04T06:08:31.654Z,61.80
2018-11-04T06:09:31.686Z,60.10
2018-11-04T06:10:31.647Z,60.00
2018-11-04T06:11:31.638Z,59.50
2018-11-04T06:12:31.645Z,60.80
2018-11-04T06:13:31.640Z,61.90
2018-11-04T06:14:31.667Z,62.70
2018-11-04T06:15:31.629Z,62.00
2018-11-04T06:16:31.629Z,58.50
2018-11-04T06:17:31.621Z,61.90
2018-11-04T06:18:31.618Z,58.70
2018-11-04T06:19:31.700Z,58.10
2018-11-04T06:20:31.623Z,56.90
2018-11-04T06:21:31.612Z,59.50
2018-11-04T06:22:31.597Z,58.00
2018-11-04T06:23:31.600Z,56.50
2018-11-04T06:24:31.635Z,53.90
2018-11-04T06:25:31.593Z,58.50
2018-11-04T06:26:31.604Z,59.10
2018-11-04T06:27:31.585Z,58.70
2018-11-04T06:28:31.582Z,59.20
2018-11-04T06:29:31.611Z,56.40
2018-11-04T06:30:31.578Z,58.40
2018-11-04T06:31:31.576Z,58.10
2018-11-04T06:32:31.575Z,54.30
2018-11-04T06:33:31.563Z,57.50
2018-11-04T06:34:31.639Z,60.50
2018-11-04T06:35:31.555Z,58.50
2018-11-04T06:36:31.559Z,57.20
2018-11-04T06:37:31.555Z,61.10
2018-11-04T06:38:31.550Z,55.30
2018-11-04T06:39:31.574Z,55.80
2018-11-04T06:40:31.544Z,58.70
2018-11-04T06:41:31.543Z,59.30
2018-11-04T06:42:31.535Z,58.20
2018-11-04T06:43:31.535Z,59.00
2018-11-04T06:44:31.555Z,57.40
2018-11-04T06:45:31.526Z,60.10
2018-11-04T06:46:31.519Z,58.30
2018-11-04T06:47:31.556Z,59.70
2018-11-04T06:48:31.515Z,59.20
2018-11-04T06:49:31.590Z,59.20
2018-11-04T06:50:31.506Z,55.40
2018-11-04T06:51:31.506Z,54.30
2018-11-04T06:52:31.503Z,55.40
2018-11-04T06:53:31.510Z,58.60
2018-11-04T06:54:31.523Z,52.80
2018-11-04T06:55:31.490Z,55.60
2018-11-04T06:56:31.490Z,52.90
2018-11-04T06:57:31.487Z,53.30
2018-11-04T06:58:31.480Z,50.10
2018-11-04T06:59:31.508Z,49.60
2018-11-04T07:00:31.477Z,52.00
2018-11-04T07:01:31.470Z,53.40
2018-11-04T07:02:31.469Z,49.80
2018-11-04T07:03:31.463Z,52.40
2018-11-04T07:04:31.457Z,53.00
2018-11-04T07:05:31.488Z,49.90
2018-11-04T07:06:31.455Z,49.50
2018-11-04T07:07:31.459Z,51.30
2018-11-04T07:08:31.453Z,52.80
2018-11-04T07:09:31.446Z,50.30
2018-11-04T07:10:31.471Z,51.80
2018-11-04T07:11:31.440Z,55.30
2018-11-04T07:12:31.437Z,54.40
2018-11-04T07:13:31.437Z,54.20
2018-11-04T07:14:31.459Z,53.90
2018-11-04T07:15:31.425Z,54.20
2018-11-04T07:16:31.448Z,52.90
2018-11-04T07:17:31.419Z,54.20
2018-11-04T07:18:31.415Z,55.90
2018-11-04T07:19:31.414Z,52.00
2018-11-04T07:20:31.435Z,52.80
2018-11-04T07:21:31.409Z,54.90
2018-11-04T07:22:31.400Z,53.70
2018-11-04T07:23:31.396Z,54.50
2018-11-04T07:24:31.397Z,54.70
2018-11-04T07:25:31.435Z,54.80
2018-11-04T07:26:31.391Z,54.90
2018-11-04T07:27:31.384Z,53.80
2018-11-04T07:28:31.385Z,54.10
2018-11-04T07:29:31.384Z,49.30
2018-11-04T07:30:31.404Z,51.60
2018-11-04T07:31:31.373Z,52.20
2018-11-04T07:32:31.368Z,51.60
2018-11-04T07:33:31.369Z,46.20
2018-11-04T07:34:31.366Z,48.00
2018-11-04T07:35:31.389Z,47.00
2018-11-04T07:36:31.354Z,45.40
2018-11-04T07:37:31.352Z,45.50
2018-11-04T07:38:31.349Z,47.20
2018-11-04T07:39:31.345Z,43.90
2018-11-04T07:40:31.380Z,44.90
2018-11-04T07:41:31.341Z,46.60
2018-11-04T07:42:31.343Z,44.90
2018-11-04T07:43:31.333Z,47.10
2018-11-04T07:44:31.333Z,46.60
2018-11-04T07:45:31.402Z,43.90
2018-11-04T07:46:31.330Z,43.80
2018-11-04T07:47:31.321Z,45.40
2018-11-04T07:48:31.317Z,46.00
2018-11-04T07:49:31.317Z,46.90
2018-11-04T07:50:31.395Z,46.00
2018-11-04T07:51:31.340Z,45.40
2018-11-04T07:52:31.306Z,47.90
2018-11-04T07:53:31.307Z,50.20
2018-11-04T07:54:31.298Z,48.00
2018-11-04T07:55:31.327Z,46.60
2018-11-04T07:56:31.293Z,45.30
2018-11-04T07:57:31.287Z,49.50
2018-11-04T07:58:31.290Z,44.50
2018-11-04T07:59:31.287Z,48.20
2018-11-04T08:00:31.309Z,49.40
2018-11-04T08:01:31.277Z,47.50
2018-11-04T08:02:31.274Z,48.90
2018-11-04T08:03:31.499Z,47.90
2018-11-04T08:04:31.271Z,47.30
2018-11-04T08:05:31.294Z,51.00
2018-11-04T08:06:31.262Z,49.20
2018-11-04T08:07:31.259Z,47.70
2018-11-04T08:08:31.255Z,48.50
2018-11-04T08:09:31.258Z,48.10
2018-11-04T08:10:31.279Z,50.50
2018-11-04T08:11:31.247Z,51.70
2018-11-04T08:12:31.246Z,51.40
2018-11-04T08:13:31.285Z,53.50
2018-11-04T08:14:31.238Z,50.00
2018-11-04T08:15:31.269Z,53.50
2018-11-04T08:16:31.235Z,52.70
2018-11-04T08:17:31.922Z,50.80
2018-11-04T08:18:31.226Z,50.00
2018-11-04T08:19:31.222Z,51.50
2018-11-04T08:20:31.252Z,55.90
2018-11-04T08:21:31.290Z,52.20
2018-11-04T08:22:31.215Z,52.90
2018-11-04T08:23:31.211Z,52.10
2018-11-04T08:24:31.201Z,48.80
2018-11-04T08:25:31.243Z,54.60
2018-11-04T08:26:31.203Z,53.20
2018-11-04T08:27:31.197Z,52.70
2018-11-04T08:28:31.195Z,49.90
2018-11-04T08:29:31.195Z,55.90
2018-11-04T08:30:31.224Z,53.60
2018-11-04T08:31:31.191Z,53.10
2018-11-04T08:32:31.184Z,53.30
2018-11-04T08:33:31.186Z,50.60
2018-11-04T08:34:33.301Z,50.50
2018-11-04T08:35:31.203Z,51.10
2018-11-04T08:36:31.186Z,51.90
2018-11-04T08:37:31.171Z,53.30
2018-11-04T08:38:31.174Z,51.30
2018-11-04T08:39:31.163Z,51.80
2018-11-04T08:40:31.195Z,48.80
2018-11-04T08:41:31.159Z,46.80
2018-11-04T08:42:31.156Z,49.20
2018-11-04T08:43:31.152Z,49.20
2018-11-04T08:44:31.148Z,47.70
2018-11-04T08:45:31.189Z,46.30
2018-11-04T08:46:31.146Z,49.80
2018-11-04T08:47:31.145Z,46.30
2018-11-04T08:48:31.140Z,48.50
2018-11-04T08:49:31.133Z,49.60
2018-11-04T08:50:31.166Z,46.20
2018-11-04T08:51:31.124Z,49.60
2018-11-04T08:52:31.197Z,48.00
2018-11-04T08:53:31.123Z,45.80
2018-11-04T08:54:31.121Z,43.20
2018-11-04T08:55:31.146Z,45.70
2018-11-04T08:56:31.117Z,42.50
2018-11-04T08:57:31.110Z,42.80
2018-11-04T08:58:31.113Z,41.30
2018-11-04T08:59:31.107Z,42.10
2018-11-04T09:00:31.129Z,39.70
2018-11-04T09:01:31.108Z,38.80
2018-11-04T09:02:31.100Z,40.00
2018-11-04T09:03:31.099Z,36.80
2018-11-04T09:04:31.098Z,39.90
2018-11-04T09:05:31.117Z,38.60
2018-11-04T09:06:31.172Z,37.30
2018-11-04T09:07:31.092Z,37.70
2018-11-04T09:08:31.085Z,35.80
2018-11-04T09:09:31.086Z,36.60
2018-11-04T09:10:31.111Z,36.00
2018-11-04T09:11:31.076Z,41.00
2018-11-04T09:12:31.078Z,38.80
2018-11-04T09:13:31.073Z,37.60
2018-11-04T09:14:31.066Z,39.00
2018-11-04T09:15:31.097Z,37.40
2018-11-04T09:16:31.065Z,37.70
2018-11-04T09:17:31.067Z,38.50
2018-11-04T09:18:31.073Z,36.90
2018-11-04T09:19:31.055Z,37.10
2018-11-04T09:20:31.088Z,36.00
2018-11-04T09:21:31.053Z,38.80
2018-11-04T09:22:31.133Z,38.50
2018-11-04T09:23:31.104Z,36.70
2018-11-04T09:24:31.052Z,36.70
2018-11-04T09:25:31.141Z,38.60
2018-11-04T09:26:31.038Z,38.70
2018-11-04T09:27:31.043Z,37.70
2018-11-04T09:28:31.037Z,38.60
2018-11-04T09:29:31.037Z,38.70
2018-11-04T09:30:31.062Z,41.60
2018-11-04T09:31:31.034Z,37.20
2018-11-04T09:32:31.027Z,37.50
2018-11-04T09:33:31.030Z,32.50
2018-11-04T09:34:31.033Z,36.00
2018-11-04T09:35:31.242Z,36.60
2018-11-04T09:36:31.063Z,33.70
2018-11-04T09:37:31.011Z,35.00
2018-11-04T09:38:31.014Z,34.10
2018-11-04T09:39:31.018Z,32.70
2018-11-04T09:40:31.051Z,35.00
2018-11-04T09:41:31.010Z,35.60
2018-11-04T09:42:31.010Z,35.60
2018-11-04T09:43:31.006Z,37.10
2018-11-04T09:44:31.005Z,35.30
2018-11-04T09:45:31.031Z,37.60
2018-11-04T09:46:30.998Z,38.80
2018-11-04T09:47:30.996Z,38.30
2018-11-04T09:48:31.005Z,36.70
2018-11-04T09:49:30.996Z,36.60
2018-11-04T09:50:31.022Z,36.20
2018-11-04T09:51:30.996Z,36.50
2018-11-04T09:52:30.990Z,36.80
2018-11-04T09:53:30.986Z,36.30
2018-11-04T09:54:30.988Z,39.00
2018-11-04T09:55:31.011Z,37.50
2018-11-04T09:56:31.063Z,37.20
2018-11-04T09:57:30.980Z,36.40
2018-11-04T09:58:31.007Z,35.30
2018-11-04T09:59:30.975Z,35.30
2018-11-04T10:00:30.976Z,35.70
2018-11-04T10:01:30.999Z,35.50
2018-11-04T10:02:30.964Z,35.40
2018-11-04T10:03:30.971Z,34.30
2018-11-04T10:04:30.969Z,36.70
2018-11-04T10:05:30.971Z,32.90
2018-11-04T10:06:30.992Z,36.00
2018-11-04T10:07:30.959Z,37.20
2018-11-04T10:08:30.960Z,36.20
2018-11-04T10:09:30.956Z,37.50
2018-11-04T10:10:30.962Z,33.70
2018-11-04T10:11:30.993Z,38.00
2018-11-04T10:12:30.953Z,35.00
2018-11-04T10:13:30.957Z,34.60
2018-11-04T10:14:30.946Z,35.10
2018-11-04T10:15:30.943Z,35.50
2018-11-04T10:16:30.975Z,37.60
2018-11-04T10:17:30.944Z,34.30
2018-11-04T10:18:30.940Z,35.30
2018-11-04T10:19:31.089Z,35.20
2018-11-04T10:20:31.201Z,33.00
2018-11-04T10:21:30.963Z,33.90
2018-11-04T10:22:30.936Z,30.50
2018-11-04T10:23:30.934Z,33.40
2018-11-04T10:24:30.932Z,32.10
2018-11-04T10:25:30.930Z,32.40
2018-11-04T10:26:30.957Z,33.80
2018-11-04T10:27:30.925Z,34.10
2018-11-04T10:28:30.924Z,32.00
2018-11-04T10:29:30.920Z,30.80
2018-11-04T10:30:31.020Z,31.10
2018-11-04T10:31:31.101Z,31.10
2018-11-04T10:32:30.920Z,31.10
2018-11-04T10:33:30.911Z,29.30
2018-11-04T10:34:30.916Z,30.80
2018-11-04T10:35:30.914Z,32.00
2018-11-04T10:36:30.937Z,32.30
2018-11-04T10:37:30.912Z,33.50
2018-11-04T10:38:30.905Z,31.90
2018-11-04T10:39:30.905Z,30.20
2018-11-04T10:40:30.901Z,30.80
2018-11-04T10:41:30.930Z,30.30
2018-11-04T10:42:30.898Z,31.80
2018-11-04T10:43:30.901Z,29.30
2018-11-04T10:44:30.897Z,31.70
2018-11-04T10:45:30.895Z,30.20
2018-11-04T10:46:30.921Z,32.90
2018-11-04T10:47:30.892Z,29.50
2018-11-04T10:48:30.889Z,29.40
2018-11-04T10:49:31.004Z,30.10
2018-11-04T10:50:30.886Z,30.10
2018-11-04T10:51:30.909Z,31.10
2018-11-04T10:52:30.946Z,29.00
2018-11-04T10:53:31.339Z,30.20
2018-11-04T10:54:31.277Z,31.40
2018-11-04T10:55:33.315Z,29.90
2018-11-04T10:56:34.383Z,27.60
2018-11-04T10:57:34.809Z,29.80
2018-11-04T10:58:31.471Z,30.20
2018-11-04T10:59:31.476Z,32.60
2018-11-04T11:00:37.720Z,29.20
2018-11-04T11:01:33.306Z,30.50
2018-11-04T11:02:35.765Z,31.00
2018-11-04T11:03:31.750Z,31.00
2018-11-04T11:04:33.354Z,31.60
2018-11-04T11:05:31.505Z,31.00
2018-11-04T11:06:31.840Z,30.60
2018-11-04T11:07:34.156Z,29.40
2018-11-04T11:08:33.368Z,30.70
2018-11-04T11:09:31.299Z,31.70
2018-11-04T11:10:31.824Z,31.50
2018-11-04T11:11:31.188Z,29.60
2018-11-04T11:12:31.467Z,29.90
2018-11-04T11:13:32.324Z,30.10
2018-11-04T11:14:30.952Z,27.70
2018-11-04T11:15:33.149Z,28.80
2018-11-04T11:16:31.144Z,28.80
2018-11-04T11:17:31.388Z,30.80
2018-11-04T11:18:31.738Z,28.60
2018-11-04T11:19:33.962Z,30.70
2018-11-04T11:20:32.305Z,29.90
2018-11-04T11:21:31.127Z,30.70
2018-11-04T11:22:31.944Z,29.20
2018-11-04T11:23:31.725Z,27.90
2018-11-04T11:24:30.830Z,27.20
2018-11-04T11:25:30.822Z,31.40
2018-11-04T11:26:30.854Z,29.70
2018-11-04T11:27:31.453Z,28.70
2018-11-04T11:28:30.816Z,28.70
2018-11-04T11:29:30.819Z,27.80
2018-11-04T11:30:30.822Z,27.40
2018-11-04T11:31:30.851Z,29.20
2018-11-04T11:32:30.813Z,28.00
2018-11-04T11:33:32.806Z,29.00
2018-11-04T11:34:30.824Z,28.80
2018-11-04T11:35:30.806Z,28.40
2018-11-04T11:36:30.836Z,29.00
2018-11-04T11:37:30.810Z,26.70
2018-11-04T11:38:30.820Z,27.80
2018-11-04T11:39:30.798Z,26.20
2018-11-04T11:40:30.805Z,28.50
2018-11-04T11:41:30.827Z,27.50
2018-11-04T11:42:30.791Z,26.20
2018-11-04T11:43:30.800Z,27.00
2018-11-04T11:44:30.791Z,24.90
2018-11-04T11:45:30.790Z,26.10
2018-11-04T11:46:30.817Z,27.20
2018-11-04T11:47:30.788Z,25.50
2018-11-04T11:48:30.782Z,25.80
2018-11-04T11:49:30.787Z,26.70
2018-11-04T11:50:30.782Z,25.60
2018-11-04T11:51:30.850Z,26.00
2018-11-04T11:52:30.841Z,25.80
2018-11-04T11:53:30.776Z,25.30
2018-11-04T11:54:30.774Z,25.70
2018-11-04T11:55:30.770Z,26.80
2018-11-04T11:56:30.808Z,25.10
2018-11-04T11:57:30.771Z,27.30
2018-11-04T11:58:30.767Z,24.50
2018-11-04T11:59:30.771Z,25.60
2018-11-04T12:00:30.766Z,24.00
2018-11-04T12:01:30.791Z,23.80
2018-11-04T12:02:30.767Z,23.50
2018-11-04T12:03:30.771Z,23.20
2018-11-04T12:04:30.761Z,24.50
2018-11-04T12:05:30.757Z,25.00
2018-11-04T12:06:30.792Z,25.00
2018-11-04T12:07:30.756Z,26.00
2018-11-04T12:08:30.746Z,24.20
2018-11-04T12:09:30.757Z,24.30
2018-11-04T12:10:30.780Z,21.20
2018-11-04T12:11:30.752Z,25.20
2018-11-04T12:12:30.750Z,25.60
2018-11-04T12:13:30.748Z,25.30
2018-11-04T12:14:30.748Z,23.60
2018-11-04T12:15:30.772Z,21.80
2018-11-04T12:16:30.744Z,23.90
2018-11-04T12:17:30.772Z,21.80
2018-11-04T12:18:30.741Z,23.70
2018-11-04T12:19:30.741Z,22.80
2018-11-04T12:20:30.768Z,24.20
2018-11-04T12:21:30.736Z,22.70
2018-11-04T12:22:30.737Z,24.50
2018-11-04T12:23:30.739Z,22.80
2018-11-04T12:24:30.730Z,23.50
2018-11-04T12:25:30.761Z,23.70
2018-11-04T12:26:30.728Z,25.30
2018-11-04T12:27:30.725Z,23.70
2018-11-04T12:28:30.729Z,23.50
2018-11-04T12:29:30.729Z,23.60
2018-11-04T12:30:30.752Z,24.80
2018-11-04T12:31:30.724Z,27.10
2018-11-04T12:32:30.727Z,23.10
2018-11-04T12:33:30.720Z,24.40
2018-11-04T12:34:30.719Z,22.40
2018-11-04T12:35:30.748Z,24.90
2018-11-04T12:36:30.717Z,25.20
2018-11-04T12:37:30.717Z,23.70
2018-11-04T12:38:30.716Z,24.10
2018-11-04T12:39:30.714Z,23.40
2018-11-04T12:40:30.741Z,24.20
2018-11-04T12:41:30.713Z,24.80
2018-11-04T12:42:30.807Z,23.70
2018-11-04T12:43:30.712Z,23.10
2018-11-04T12:44:30.706Z,22.70
2018-11-04T12:45:30.789Z,22.60
2018-11-04T12:46:30.706Z,23.00
2018-11-04T12:47:30.706Z,23.10
2018-11-04T12:48:30.705Z,24.30
2018-11-04T12:49:30.702Z,25.20
2018-11-04T12:50:30.982Z,24.00
2018-11-04T12:51:30.698Z,28.40